createdAt,value
2023-02-02T00:01:16.624Z,3.33
2023-02-02T00:05:18.307Z,3.17
2023-02-02T00:09:21.198Z,3.95
2023-02-02T00:13:23.108Z,3.33
2023-02-02T00:17:24.839Z,3.42
2023-02-02T00:21:27.229Z,3.45
2023-02-02T00:25:29.077Z,2.78
2023-02-02T00:29:31.735Z,2.70
2023-02-02T00:33:33.540Z,3.40
2023-02-02T00:37:35.322Z,3.37
2023-02-02T00:41:37.026Z,3.62
2023-02-02T00:45:39.674Z,3.42
2023-02-02T00:49:41.353Z,4.10
2023-02-02T00:53:43.026Z,3.72
2023-02-02T00:57:44.705Z,2.80
2023-02-02T01:01:46.440Z,3.20
2023-02-02T01:05:50.066Z,3.35
2023-02-02T01:09:51.728Z,3.95
2023-02-02T01:13:53.512Z,3.17
2023-02-02T01:17:55.251Z,3.20
2023-02-02T01:21:56.984Z,3.15
2023-02-02T01:26:00.720Z,4.15
2023-02-02T01:30:02.553Z,4.07
2023-02-02T01:34:04.254Z,3.62
2023-02-02T01:38:06.056Z,3.17
2023-02-02T01:42:20.139Z,4.35
2023-02-02T01:46:29.616Z,3.85
2023-02-02T01:50:34.848Z,3.90
2023-02-02T01:54:47.219Z,4.00
2023-02-02T01:58:48.914Z,4.00
2023-02-02T02:02:52.939Z,2.80
2023-02-02T02:06:54.810Z,5.20
2023-02-02T02:10:57.556Z,3.12
2023-02-02T02:15:17.989Z,4.87
2023-02-02T02:20:06.424Z,3.80
2023-02-02T02:24:46.233Z,3.80
2023-02-02T02:29:21.330Z,4.07
2023-02-02T02:33:36.633Z,4.30
2023-02-02T02:37:47.255Z,3.55
2023-02-02T02:41:53.983Z,4.15
2023-02-02T02:45:56.233Z,4.68
2023-02-02T02:49:58.050Z,4.12
2023-02-02T02:53:59.738Z,3.35
2023-02-02T02:58:09.859Z,3.85
2023-02-02T03:02:33.042Z,4.25
2023-02-02T03:06:59.571Z,3.53
2023-02-02T03:11:03.999Z,3.28
2023-02-02T03:15:06.802Z,3.95
2023-02-02T03:19:09.045Z,3.50
2023-02-02T03:23:10.815Z,3.10
2023-02-02T03:27:12.496Z,4.10
2023-02-02T03:31:14.309Z,3.60
2023-02-02T03:35:16.120Z,4.35
2023-02-02T03:39:17.859Z,4.12
2023-02-02T03:43:23.565Z,4.65
2023-02-02T03:47:29.611Z,4.00
2023-02-02T03:51:31.335Z,4.60
2023-02-02T03:55:33.076Z,4.30
2023-02-02T03:59:35.106Z,4.65
2023-02-02T04:03:36.836Z,4.70
2023-02-02T04:07:38.591Z,4.80
2023-02-02T04:11:40.257Z,3.85
2023-02-02T04:15:42.171Z,4.32
2023-02-02T04:19:43.840Z,4.57
2023-02-02T04:23:45.589Z,4.03
2023-02-02T04:27:47.323Z,5.47
2023-02-02T04:31:49.184Z,4.03
2023-02-02T04:35:51.431Z,4.30
2023-02-02T04:39:55.226Z,4.32
2023-02-02T04:43:56.938Z,4.45
2023-02-02T04:47:58.698Z,4.28
2023-02-02T04:52:00.433Z,3.92
2023-02-02T04:56:10.421Z,6.53
2023-02-02T05:00:13.239Z,5.12
2023-02-02T05:04:15.019Z,4.30
2023-02-02T05:08:16.759Z,5.07
2023-02-02T05:12:18.448Z,4.50
2023-02-02T05:16:21.431Z,4.12
2023-02-02T05:20:23.178Z,4.40
2023-02-02T05:24:24.928Z,4.07
2023-02-02T05:28:26.805Z,5.15
2023-02-02T05:32:29.694Z,4.25
2023-02-02T05:36:31.495Z,4.32
2023-02-02T05:40:33.151Z,4.53
2023-02-02T05:44:34.911Z,4.07
2023-02-02T05:48:36.651Z,3.83
2023-02-02T05:52:41.391Z,3.62
2023-02-02T05:56:43.116Z,3.55
2023-02-02T06:00:44.888Z,3.67
2023-02-02T06:04:46.646Z,4.03
2023-02-02T06:08:48.411Z,4.05
2023-02-02T06:12:50.286Z,3.83
2023-02-02T06:16:51.995Z,3.67
2023-02-02T06:21:01.363Z,4.30
2023-02-02T06:25:05.448Z,3.97
2023-02-02T06:29:07.727Z,4.72
2023-02-02T06:33:09.513Z,4.47
2023-02-02T06:37:11.184Z,4.37
2023-02-02T06:41:12.821Z,5.12
2023-02-02T06:45:14.547Z,4.82
2023-02-02T06:49:16.189Z,5.32
2023-02-02T06:53:22.839Z,5.12
2023-02-02T06:57:24.532Z,6.07
2023-02-02T07:01:26.165Z,5.80
2023-02-02T07:05:30.408Z,7.10
2023-02-02T07:09:33.832Z,6.20
2023-02-02T07:13:35.475Z,6.18
2023-02-02T07:17:37.210Z,6.60
2023-02-02T07:21:38.820Z,7.28
2023-02-02T07:25:41.256Z,6.78
2023-02-02T07:29:44.716Z,6.72
2023-02-02T07:33:47.686Z,7.87
2023-02-02T07:37:55.912Z,7.15
2023-02-02T07:41:57.616Z,7.28
2023-02-02T07:46:04.187Z,7.10
2023-02-02T07:50:06.235Z,7.07
2023-02-02T07:54:08.132Z,7.12
2023-02-02T07:58:10.743Z,6.65
2023-02-02T08:02:12.384Z,6.60
2023-02-02T08:06:22.034Z,6.85
2023-02-02T08:10:23.772Z,6.47
2023-02-02T08:14:25.513Z,6.07
2023-02-02T08:18:27.161Z,7.80
2023-02-02T08:22:28.812Z,7.05
2023-02-02T08:26:31.466Z,7.72
2023-02-02T08:30:35.126Z,7.85
2023-02-02T08:34:36.961Z,8.60
2023-02-02T08:38:38.648Z,9.45
2023-02-02T08:42:40.285Z,8.95
2023-02-02T08:46:43.054Z,10.23
2023-02-02T08:50:44.815Z,10.10
2023-02-02T08:54:46.522Z,9.18
2023-02-02T08:58:58.712Z,9.85
2023-02-02T09:03:00.328Z,9.82
2023-02-02T09:07:02.205Z,10.38
2023-02-02T09:11:06.289Z,8.27
2023-02-02T09:15:08.186Z,10.20
2023-02-02T09:19:11.626Z,9.73
2023-02-02T09:23:13.253Z,9.35
2023-02-02T09:27:14.909Z,7.78
2023-02-02T09:31:17.183Z,8.75
2023-02-02T09:35:19.043Z,7.85
2023-02-02T09:39:20.796Z,7.53
2023-02-02T09:43:51.333Z,8.48
2023-02-02T09:48:19.247Z,7.65
2023-02-02T09:52:33.781Z,8.88
2023-02-02T09:56:41.734Z,8.55
2023-02-02T10:00:54.137Z,8.30
2023-02-02T10:05:08.171Z,8.45
2023-02-02T10:09:31.196Z,8.63
2023-02-02T10:13:37.877Z,7.50
2023-02-02T10:17:52.196Z,6.95
2023-02-02T10:22:04.756Z,7.50
2023-02-02T10:26:35.632Z,7.55
2023-02-02T10:30:54.325Z,7.28
2023-02-02T10:35:21.235Z,7.75
2023-02-02T10:39:36.949Z,6.53
2023-02-02T10:43:54.422Z,6.85
2023-02-02T10:47:56.159Z,7.40
2023-02-02T10:52:06.475Z,6.47
2023-02-02T10:56:11.970Z,7.03
2023-02-02T11:00:25.960Z,6.95
2023-02-02T11:04:48.120Z,6.70
2023-02-02T11:08:56.572Z,6.57
2023-02-02T11:13:02.048Z,7.53
2023-02-02T11:17:06.114Z,6.47
2023-02-02T11:21:40.122Z,5.62
2023-02-02T11:25:43.129Z,6.28
2023-02-02T11:29:53.189Z,5.90
2023-02-02T11:34:07.302Z,5.18
2023-02-02T11:38:16.637Z,4.95
2023-02-02T11:42:21.641Z,5.60
2023-02-02T11:46:32.618Z,5.62
2023-02-02T11:50:35.626Z,5.47
2023-02-02T11:54:39.043Z,5.37
2023-02-02T11:58:49.295Z,5.22
2023-02-02T12:02:51.035Z,5.57
2023-02-02T12:06:52.620Z,4.37
2023-02-02T12:11:02.103Z,5.22
2023-02-02T12:15:13.234Z,4.65
2023-02-02T12:19:22.598Z,4.85
2023-02-02T12:24:03.977Z,5.80
2023-02-02T12:28:33.067Z,4.70
2023-02-02T12:32:54.730Z,5.57
2023-02-02T12:37:16.560Z,5.43
2023-02-02T12:41:42.408Z,4.75
2023-02-02T12:46:19.029Z,4.80
2023-02-02T12:50:35.569Z,4.75
2023-02-02T12:54:57.196Z,4.12
2023-02-02T12:59:37.699Z,5.22
2023-02-02T13:03:49.772Z,5.28
2023-02-02T13:08:10.341Z,5.43
2023-02-02T13:12:14.650Z,5.22
2023-02-02T13:16:16.430Z,4.68
2023-02-02T13:20:27.605Z,5.10
2023-02-02T13:24:33.207Z,5.43
2023-02-02T13:29:06.779Z,5.07
2023-02-02T13:33:20.317Z,6.57
2023-02-02T13:37:32.381Z,6.25
2023-02-02T13:41:34.097Z,7.12
2023-02-02T13:45:57.745Z,7.45
2023-02-02T13:50:06.380Z,7.68
2023-02-02T13:54:38.024Z,7.65
2023-02-02T13:59:10.538Z,8.45
2023-02-02T14:03:31.161Z,9.80
2023-02-02T14:07:45.120Z,9.52
2023-02-02T14:11:57.090Z,10.00
2023-02-02T14:16:01.941Z,9.45
2023-02-02T14:20:06.591Z,11.27
2023-02-02T14:24:26.435Z,11.10
2023-02-02T14:28:49.562Z,11.32
2023-02-02T14:32:51.221Z,11.18
2023-02-02T14:37:26.367Z,11.82
2023-02-02T14:42:04.302Z,11.90
2023-02-02T14:46:34.640Z,11.85
2023-02-02T14:50:39.191Z,11.68
2023-02-02T14:54:42.724Z,11.55
2023-02-02T14:58:49.004Z,11.32
2023-02-02T15:02:53.628Z,10.73
2023-02-02T15:06:56.496Z,10.25
2023-02-02T15:11:02.437Z,12.00
2023-02-02T15:15:08.235Z,12.98
2023-02-02T15:19:22.526Z,13.38
2023-02-02T15:23:30.548Z,14.50
2023-02-02T15:27:32.430Z,13.18
2023-02-02T15:31:42.924Z,13.60
2023-02-02T15:35:44.901Z,13.98
2023-02-02T15:39:51.377Z,14.00
2023-02-02T15:43:53.535Z,14.15
2023-02-02T15:47:57.568Z,14.32
2023-02-02T15:52:03.190Z,14.43
2023-02-02T15:56:24.519Z,15.23
2023-02-02T16:00:37.967Z,13.90
2023-02-02T16:04:42.522Z,14.18
2023-02-02T16:08:44.732Z,15.77
2023-02-02T16:12:46.630Z,14.18
2023-02-02T16:16:49.528Z,15.20
2023-02-02T16:20:54.235Z,15.00
2023-02-02T16:24:59.102Z,16.27
2023-02-02T16:29:01.028Z,16.52
2023-02-02T16:33:38.072Z,16.55
2023-02-02T16:37:39.754Z,15.88
2023-02-02T16:41:41.544Z,16.70
2023-02-02T16:45:52.500Z,17.02
2023-02-02T16:50:05.797Z,18.15
2023-02-02T16:54:07.446Z,17.00
2023-02-02T16:58:23.294Z,20.00
2023-02-02T17:02:29.896Z,21.20
2023-02-02T17:06:50.063Z,20.80
2023-02-02T17:11:12.544Z,27.45
2023-02-02T17:15:17.332Z,21.92
2023-02-02T17:19:18.960Z,22.98
2023-02-02T17:23:20.732Z,22.65
2023-02-02T17:27:33.816Z,23.05
2023-02-02T17:31:36.602Z,23.17
2023-02-02T17:35:53.182Z,22.15
2023-02-02T17:39:56.526Z,24.67
2023-02-02T17:43:58.163Z,24.58
2023-02-02T17:48:00.557Z,25.35
2023-02-02T17:52:02.216Z,22.98
2023-02-02T17:56:04.245Z,27.05
2023-02-02T18:00:06.385Z,23.70
2023-02-02T18:04:12.012Z,23.25
2023-02-02T18:08:14.526Z,26.12
2023-02-02T18:12:16.235Z,23.12
2023-02-02T18:16:19.694Z,24.10
2023-02-02T18:20:21.438Z,29.60
2023-02-02T18:24:23.138Z,26.37
2023-02-02T18:28:25.391Z,33.58
2023-02-02T18:32:27.159Z,26.73
2023-02-02T18:36:28.873Z,28.60
2023-02-02T18:40:30.569Z,31.90
2023-02-02T18:44:34.351Z,29.73
2023-02-02T18:48:36.566Z,27.67
2023-02-02T18:52:38.198Z,28.48
2023-02-02T18:56:40.207Z,26.87
2023-02-02T19:00:42.336Z,26.25
2023-02-02T19:05:04.422Z,30.70
2023-02-02T19:09:06.428Z,25.62
2023-02-02T19:13:19.251Z,26.98
2023-02-02T19:17:22.296Z,29.52
2023-02-02T19:21:25.427Z,26.35
2023-02-02T19:25:27.568Z,24.25
2023-02-02T19:29:36.012Z,30.30
2023-02-02T19:33:44.725Z,26.37
2023-02-02T19:37:48.311Z,24.92
2023-02-02T19:41:51.591Z,24.37
2023-02-02T19:45:54.791Z,26.98
2023-02-02T19:49:56.644Z,24.23
2023-02-02T19:54:00.496Z,90.78
2023-02-02T19:58:17.533Z,24.80
2023-02-02T20:02:29.435Z,29.37
2023-02-02T20:06:32.345Z,33.60
2023-02-02T20:10:46.033Z,21.23
2023-02-02T20:14:48.423Z,33.00
2023-02-02T20:18:53.855Z,20.12
2023-02-02T20:22:57.131Z,22.45
2023-02-02T20:27:14.541Z,18.83
2023-02-02T20:31:20.908Z,19.12
2023-02-02T20:35:42.656Z,17.48
2023-02-02T20:39:55.564Z,17.65
2023-02-02T20:43:57.226Z,17.83
2023-02-02T20:47:58.842Z,17.42
2023-02-02T20:52:02.797Z,16.73
2023-02-02T20:56:04.801Z,15.00
2023-02-02T21:00:10.841Z,15.13
2023-02-02T21:04:12.585Z,15.18
2023-02-02T21:08:14.328Z,15.48
2023-02-02T21:12:18.237Z,14.95
2023-02-02T21:16:19.910Z,14.32
2023-02-02T21:20:21.699Z,13.73
2023-02-02T21:24:24.472Z,14.93
2023-02-02T21:28:26.140Z,14.15
2023-02-02T21:32:27.800Z,13.52
2023-02-02T21:36:59.582Z,13.52
2023-02-02T21:41:02.014Z,13.40
2023-02-02T21:45:22.562Z,12.85
2023-02-02T21:49:26.476Z,12.32
2023-02-02T21:53:28.112Z,12.45
2023-02-02T21:57:36.925Z,13.35
2023-02-02T22:01:40.046Z,12.75
2023-02-02T22:05:41.847Z,13.20
2023-02-02T22:09:45.801Z,13.05
2023-02-02T22:13:49.063Z,13.62
2023-02-02T22:17:50.840Z,13.07
2023-02-02T22:21:54.073Z,13.25
2023-02-02T22:25:58.104Z,12.68
2023-02-02T22:30:12.803Z,11.60
2023-02-02T22:34:14.522Z,11.27
2023-02-02T22:38:18.810Z,10.50
2023-02-02T22:42:20.512Z,11.85
2023-02-02T22:46:22.444Z,11.07
2023-02-02T22:50:27.334Z,9.82
2023-02-02T22:54:30.844Z,9.93
2023-02-02T22:58:32.514Z,9.88
2023-02-02T23:02:34.256Z,9.73
2023-02-02T23:06:36.007Z,8.88
2023-02-02T23:10:37.873Z,8.93
2023-02-02T23:14:39.536Z,8.80
2023-02-02T23:18:41.214Z,8.60
2023-02-02T23:22:43.218Z,9.02
2023-02-02T23:26:44.924Z,9.68
2023-02-02T23:30:46.772Z,9.50
2023-02-02T23:34:48.486Z,10.18
2023-02-02T23:38:50.218Z,8.50
2023-02-02T23:42:51.903Z,8.18
2023-02-02T23:46:53.982Z,8.95
2023-02-02T23:50:56.003Z,8.73
2023-02-02T23:54:59.220Z,9.18
2023-02-02T23:59:00.948Z,8.75
